createdAt,value
2018-07-05T00:03:00.057Z,1.73
2018-07-05T00:08:14.672Z,2.23
2018-07-05T00:13:29.227Z,1.80
2018-07-05T00:18:43.954Z,1.70
2018-07-05T00:23:58.562Z,1.87
2018-07-05T00:29:13.340Z,2.17
2018-07-05T00:34:28.224Z,2.10
2018-07-05T00:39:43.112Z,2.00
2018-07-05T00:44:57.968Z,1.83
2018-07-05T00:50:12.702Z,1.90
2018-07-05T00:55:27.368Z,1.80
2018-07-05T01:00:42.048Z,1.70
2018-07-05T01:05:56.652Z,1.87
2018-07-05T01:11:11.292Z,2.00
2018-07-05T01:16:25.982Z,2.07
2018-07-05T01:21:40.828Z,2.00
2018-07-05T01:26:55.715Z,2.00
2018-07-05T01:32:10.466Z,1.90
2018-07-05T01:37:25.172Z,1.70
2018-07-05T01:42:39.628Z,1.83
2018-07-05T01:47:54.212Z,1.70
2018-07-05T01:53:08.992Z,1.70
2018-07-05T01:58:23.589Z,1.87
2018-07-05T02:03:38.296Z,1.63
2018-07-05T02:08:52.902Z,1.63
2018-07-05T02:14:07.530Z,1.70
2018-07-05T02:19:22.141Z,1.73
2018-07-05T02:24:36.788Z,1.70
2018-07-05T02:29:51.501Z,1.50
2018-07-05T02:35:06.187Z,1.73
2018-07-05T02:40:20.940Z,1.80
2018-07-05T02:45:35.752Z,1.63
2018-07-05T02:50:50.390Z,1.70
2018-07-05T02:56:05.252Z,1.60
2018-07-05T03:01:19.926Z,1.60
2018-07-05T03:06:34.648Z,1.90
2018-07-05T03:11:49.334Z,2.00
2018-07-05T03:17:03.872Z,2.07
2018-07-05T03:22:18.484Z,1.77
2018-07-05T03:27:33.040Z,1.73
2018-07-05T03:32:47.605Z,1.87
2018-07-05T03:38:02.206Z,1.70
2018-07-05T03:43:16.839Z,1.93
2018-07-05T03:48:31.980Z,1.80
2018-07-05T03:53:46.745Z,1.67
2018-07-05T03:59:01.420Z,1.87
2018-07-05T04:04:15.980Z,1.73
2018-07-05T04:09:30.629Z,1.70
2018-07-05T04:14:45.282Z,1.90
2018-07-05T04:20:00.086Z,2.00
2018-07-05T04:25:14.762Z,2.27
2018-07-05T04:30:29.504Z,2.03
2018-07-05T04:35:44.207Z,2.20
2018-07-05T04:40:59.032Z,1.97
2018-07-05T04:46:13.893Z,2.70
2018-07-05T04:51:28.589Z,2.00
2018-07-05T04:56:43.137Z,2.53
2018-07-05T05:01:57.892Z,2.10
2018-07-05T05:07:12.652Z,2.20
2018-07-05T05:12:27.456Z,2.57
2018-07-05T05:17:42.261Z,2.13
2018-07-05T05:22:57.035Z,2.53
2018-07-05T05:28:11.824Z,2.27
2018-07-05T05:33:26.500Z,2.20
2018-07-05T05:38:41.138Z,2.03
2018-07-05T05:43:55.857Z,2.50
2018-07-05T05:49:10.560Z,2.53
2018-07-05T05:54:25.116Z,2.10
2018-07-05T05:59:39.637Z,2.27
2018-07-05T06:04:54.371Z,2.00
2018-07-05T06:10:08.962Z,2.00
2018-07-05T06:15:23.678Z,2.03
2018-07-05T06:20:38.426Z,1.97
2018-07-05T06:25:53.280Z,2.10
2018-07-05T06:31:07.825Z,2.10
2018-07-05T06:36:22.440Z,2.30
2018-07-05T06:41:37.160Z,1.97
2018-07-05T06:46:52.485Z,2.13
2018-07-05T06:52:07.065Z,2.10
2018-07-05T06:57:21.660Z,2.20
2018-07-05T07:02:36.162Z,2.37
2018-07-05T07:07:50.663Z,2.00
2018-07-05T07:13:05.293Z,2.03
2018-07-05T07:18:19.948Z,2.00
2018-07-05T07:23:34.472Z,2.60
2018-07-05T07:28:49.160Z,2.10
2018-07-05T07:34:03.884Z,2.40
2018-07-05T07:39:18.583Z,1.93
2018-07-05T07:44:21.245Z,2.30
2018-07-05T07:49:23.552Z,2.10
2018-07-05T07:54:25.848Z,2.50
2018-07-05T07:59:28.196Z,2.30
2018-07-05T08:04:30.488Z,2.30
2018-07-05T08:09:32.812Z,2.20
2018-07-05T08:14:35.123Z,2.50
2018-07-05T08:19:37.434Z,1.87
2018-07-05T08:24:39.724Z,2.70
2018-07-05T08:29:42.272Z,2.22
2018-07-05T08:34:44.576Z,2.50
2018-07-05T08:39:46.893Z,2.10
2018-07-05T08:44:49.521Z,2.20
2018-07-05T08:49:51.792Z,2.30
2018-07-05T08:54:54.104Z,2.02
2018-07-05T08:59:56.720Z,2.58
2018-07-05T09:04:59.038Z,2.60
2018-07-05T09:10:01.356Z,2.27
2018-07-05T09:15:03.668Z,2.60
2018-07-05T09:20:05.969Z,2.17
2018-07-05T09:25:08.291Z,2.65
2018-07-05T09:30:10.625Z,2.60
2018-07-05T09:35:12.981Z,2.40
2018-07-05T09:40:15.285Z,2.75
2018-07-05T09:45:17.600Z,2.60
2018-07-05T09:50:19.926Z,2.60
2018-07-05T09:55:22.269Z,2.27
2018-07-05T10:00:29.902Z,2.45
2018-07-05T10:05:32.275Z,2.33
2018-07-05T10:10:34.618Z,2.45
2018-07-05T10:15:36.976Z,2.58
2018-07-05T10:20:39.312Z,2.70
2018-07-05T10:25:41.654Z,2.60
2018-07-05T10:30:56.372Z,2.60
2018-07-05T10:35:58.725Z,2.20
2018-07-05T10:41:13.447Z,2.35
2018-07-05T10:46:28.096Z,2.22
2018-07-05T10:51:42.657Z,2.45
2018-07-05T10:56:57.201Z,2.45
2018-07-05T11:02:11.806Z,2.45
2018-07-05T11:07:26.577Z,2.95
2018-07-05T11:12:41.156Z,2.45
2018-07-05T11:17:55.732Z,2.47
2018-07-05T11:23:10.376Z,2.40
2018-07-05T11:28:25.117Z,2.55
2018-07-05T11:33:39.933Z,2.33
2018-07-05T11:43:59.031Z,2.35
2018-07-05T11:49:13.730Z,2.60
2018-07-05T11:54:28.316Z,2.35
2018-07-05T11:59:43.206Z,2.40
2018-07-05T12:04:57.961Z,2.60
2018-07-05T12:10:12.734Z,2.00
2018-07-05T12:15:27.611Z,1.70
2018-07-05T12:20:42.404Z,2.20
2018-07-05T12:25:57.174Z,2.10
2018-07-05T12:31:12.061Z,2.10
2018-07-05T12:36:26.704Z,2.73
2018-07-05T12:41:41.538Z,2.13
2018-07-05T12:46:56.112Z,1.67
2018-07-05T12:52:10.829Z,1.80
2018-07-05T12:57:25.448Z,2.53
2018-07-05T13:02:39.998Z,1.93
2018-07-05T13:07:54.676Z,1.87
2018-07-05T13:13:09.329Z,1.70
2018-07-05T13:18:23.966Z,2.30
2018-07-05T13:23:38.678Z,2.00
2018-07-05T13:28:53.820Z,1.60
2018-07-05T13:34:08.589Z,1.10
2018-07-05T13:39:23.204Z,1.43
2018-07-05T13:44:37.898Z,1.47
2018-07-05T13:49:52.486Z,1.10
2018-07-05T13:55:07.176Z,1.20
2018-07-05T14:00:21.869Z,1.10
2018-07-05T14:05:36.482Z,1.80
2018-07-05T14:10:51.208Z,1.50
2018-07-05T14:16:05.922Z,1.50
2018-07-05T14:21:20.644Z,1.20
2018-07-05T14:26:35.325Z,1.37
2018-07-05T14:31:49.928Z,1.60
2018-07-05T14:37:04.630Z,1.20
2018-07-05T14:42:19.310Z,1.47
2018-07-05T14:47:34.107Z,2.53
2018-07-05T14:52:48.661Z,1.63
2018-07-05T14:58:03.216Z,1.13
2018-07-05T15:03:17.849Z,1.33
2018-07-05T15:08:32.610Z,1.50
2018-07-05T15:13:47.348Z,1.63
2018-07-05T15:19:02.012Z,1.80
2018-07-05T15:24:16.797Z,1.70
2018-07-05T15:29:31.288Z,1.83
2018-07-05T15:34:45.988Z,2.03
2018-07-05T15:40:00.674Z,2.57
2018-07-05T15:45:15.354Z,2.10
2018-07-05T15:50:33.625Z,2.23
2018-07-05T15:55:49.332Z,2.40
2018-07-05T16:01:04.009Z,2.60
2018-07-05T16:06:18.652Z,2.70
2018-07-05T16:11:33.514Z,2.53
2018-07-05T16:22:13.879Z,2.97
2018-07-05T16:27:28.489Z,2.60
2018-07-05T16:32:43.107Z,2.53
2018-07-05T16:37:57.985Z,2.70
2018-07-05T16:43:12.561Z,3.13
2018-07-05T16:48:27.133Z,2.97
2018-07-05T16:53:41.792Z,3.63
2018-07-05T16:58:56.549Z,2.97
2018-07-05T17:04:11.276Z,2.80
2018-07-05T17:09:26.070Z,2.87
2018-07-05T17:14:40.891Z,2.80
2018-07-05T17:19:55.446Z,3.10
2018-07-05T17:25:10.061Z,3.10
2018-07-05T17:30:24.714Z,3.00
2018-07-05T17:35:39.633Z,2.80
2018-07-05T17:40:48.212Z,2.53
2018-07-05T17:46:02.887Z,2.50
2018-07-05T17:51:17.614Z,2.00
2018-07-05T17:56:32.346Z,1.80
2018-07-05T18:01:47.063Z,1.70
2018-07-05T18:07:01.807Z,1.80
2018-07-05T18:12:16.493Z,1.97
2018-07-05T18:17:31.227Z,2.10
2018-07-05T18:22:45.749Z,2.10
2018-07-05T18:28:00.477Z,1.80
2018-07-05T18:33:15.012Z,1.90
2018-07-05T18:38:29.831Z,2.10
2018-07-05T18:43:44.579Z,2.20
2018-07-05T18:48:59.209Z,2.20
2018-07-05T18:54:14.184Z,2.20
2018-07-05T18:59:28.907Z,2.00
2018-07-05T19:04:43.713Z,2.17
2018-07-05T19:09:58.442Z,2.20
2018-07-05T19:15:13.106Z,1.97
2018-07-05T19:20:27.786Z,1.83
2018-07-05T19:25:42.515Z,2.20
2018-07-05T19:30:57.285Z,2.30
2018-07-05T19:36:12.263Z,2.17
2018-07-05T19:41:26.882Z,2.40
2018-07-05T19:46:41.770Z,2.57
2018-07-05T19:51:56.375Z,3.17
2018-07-05T19:57:11.008Z,2.60
2018-07-05T20:07:32.082Z,3.00
2018-07-05T20:12:46.645Z,2.70
2018-07-05T20:18:01.335Z,2.70
2018-07-05T20:23:15.973Z,3.27
2018-07-05T20:28:30.655Z,3.27
2018-07-05T20:33:45.343Z,3.40
2018-07-05T20:39:00.042Z,3.67
2018-07-05T20:44:14.776Z,3.40
2018-07-05T20:49:29.515Z,3.70
2018-07-05T20:54:44.283Z,3.30
2018-07-05T20:59:58.965Z,3.60
2018-07-05T21:05:13.591Z,3.40
2018-07-05T21:10:28.466Z,3.43
2018-07-05T21:15:43.219Z,3.37
2018-07-05T21:20:57.952Z,3.80
2018-07-05T21:26:12.601Z,3.73
2018-07-05T21:31:27.229Z,3.40
2018-07-05T21:36:41.858Z,3.60
2018-07-05T21:41:50.489Z,3.90
2018-07-05T21:47:05.037Z,3.77
2018-07-05T21:52:19.714Z,3.47
2018-07-05T21:57:34.381Z,3.77
2018-07-05T22:02:49.040Z,4.23
2018-07-05T22:08:03.714Z,4.40
2018-07-05T22:13:18.580Z,4.17
2018-07-05T22:18:38.963Z,3.93
2018-07-05T22:23:59.232Z,3.67
2018-07-05T22:29:19.341Z,3.93
2018-07-05T22:34:34.237Z,3.97
2018-07-05T22:39:48.870Z,3.53
2018-07-05T22:45:03.765Z,4.00
2018-07-05T22:50:18.615Z,3.30
2018-07-05T22:55:33.355Z,3.20
2018-07-05T23:00:47.983Z,3.97
2018-07-05T23:06:02.670Z,3.83
2018-07-05T23:11:17.329Z,3.87
2018-07-05T23:16:32.094Z,4.03
2018-07-05T23:21:46.846Z,3.60
2018-07-05T23:27:01.618Z,3.43
2018-07-05T23:32:16.244Z,4.17
2018-07-05T23:37:30.874Z,4.20
2018-07-05T23:42:45.505Z,3.73
2018-07-05T23:48:00.121Z,3.80
2018-07-05T23:53:14.910Z,4.27
2018-07-05T23:58:29.602Z,3.97
